sensor_id;sensor_type;location;lat;lon;timestamp;pressure;altitude;pressure_sealevel;temperature;humidity
71559;BME280;59382;43.852;25.952;2023-08-07T00:01:43;100240.78;;;24.05;55.01
71559;BME280;59382;43.852;25.952;2023-08-07T00:04:09;100241.41;;;24.02;55.02
71559;BME280;59382;43.852;25.952;2023-08-07T00:06:34;100242.66;;;23.96;54.84
71559;BME280;59382;43.852;25.952;2023-08-07T00:09:00;100233.47;;;23.87;54.77
71559;BME280;59382;43.852;25.952;2023-08-07T00:11:25;100215.94;;;23.83;54.62
71559;BME280;59382;43.852;25.952;2023-08-07T00:13:53;100233.97;;;23.89;54.49
71559;BME280;59382;43.852;25.952;2023-08-07T00:16:18;100237.97;;;23.83;54.68
71559;BME280;59382;43.852;25.952;2023-08-07T00:18:43;100232.56;;;23.78;54.53
71559;BME280;59382;43.852;25.952;2023-08-07T00:21:09;100221.97;;;23.72;54.52
71559;BME280;59382;43.852;25.952;2023-08-07T00:23:34;100227.56;;;23.80;54.68
71559;BME280;59382;43.852;25.952;2023-08-07T00:26:00;100231.47;;;23.79;54.70
71559;BME280;59382;43.852;25.952;2023-08-07T00:28:25;100239.06;;;23.82;54.68
71559;BME280;59382;43.852;25.952;2023-08-07T00:30:51;100246.72;;;23.85;55.06
71559;BME280;59382;43.852;25.952;2023-08-07T00:33:16;100248.84;;;23.88;54.75
71559;BME280;59382;43.852;25.952;2023-08-07T00:35:42;100244.09;;;23.80;54.83
71559;BME280;59382;43.852;25.952;2023-08-07T00:38:07;100243.09;;;23.76;54.91
71559;BME280;59382;43.852;25.952;2023-08-07T00:40:39;100260.09;;;23.78;55.12
71559;BME280;59382;43.852;25.952;2023-08-07T00:43:06;100262.69;;;23.75;55.00
71559;BME280;59382;43.852;25.952;2023-08-07T00:45:42;100238.63;;;23.53;55.14
71559;BME280;59382;43.852;25.952;2023-08-07T00:48:08;100243.00;;;23.54;55.44
71559;BME280;59382;43.852;25.952;2023-08-07T00:50:34;100274.81;;;23.60;55.22
71559;BME280;59382;43.852;25.952;2023-08-07T00:53:00;100264.72;;;23.56;55.46
71559;BME280;59382;43.852;25.952;2023-08-07T00:55:26;100274.34;;;23.58;55.09
71559;BME280;59382;43.852;25.952;2023-08-07T00:57:51;100273.91;;;23.51;55.32
71559;BME280;59382;43.852;25.952;2023-08-07T01:00:18;100269.84;;;23.49;55.30
71559;BME280;59382;43.852;25.952;2023-08-07T01:02:44;100270.38;;;23.51;55.14
71559;BME280;59382;43.852;25.952;2023-08-07T01:05:09;100278.19;;;23.57;55.29
71559;BME280;59382;43.852;25.952;2023-08-07T01:07:35;100286.97;;;23.59;55.26
71559;BME280;59382;43.852;25.952;2023-08-07T01:10:00;100267.19;;;23.44;55.27
71559;BME280;59382;43.852;25.952;2023-08-07T01:12:37;100299.22;;;23.53;55.54
71559;BME280;59382;43.852;25.952;2023-08-07T01:15:14;100300.44;;;23.47;55.45
71559;BME280;59382;43.852;25.952;2023-08-07T01:17:42;100282.06;;;23.29;55.53
71559;BME280;59382;43.852;25.952;2023-08-07T01:20:10;100309.72;;;23.38;55.33
71559;BME280;59382;43.852;25.952;2023-08-07T01:22:36;100308.38;;;23.35;55.59
71559;BME280;59382;43.852;25.952;2023-08-07T01:25:02;100310.53;;;23.38;55.73
71559;BME280;59382;43.852;25.952;2023-08-07T01:27:55;100317.97;;;23.38;55.51
71559;BME280;59382;43.852;25.952;2023-08-07T01:30:42;100320.00;;;23.32;55.59
71559;BME280;59382;43.852;25.952;2023-08-07T01:33:24;100327.31;;;23.23;55.50
71559;BME280;59382;43.852;25.952;2023-08-07T01:35:53;100331.81;;;23.19;55.55
71559;BME280;59382;43.852;25.952;2023-08-07T01:38:23;100335.06;;;23.21;55.23
71559;BME280;59382;43.852;25.952;2023-08-07T01:40:50;100350.53;;;23.17;55.23
71559;BME280;59382;43.852;25.952;2023-08-07T01:43:17;100333.38;;;23.06;55.25
71559;BME280;59382;43.852;25.952;2023-08-07T01:45:44;100346.06;;;23.07;55.09
71559;BME280;59382;43.852;25.952;2023-08-07T01:48:10;100338.25;;;22.96;55.25
71559;BME280;59382;43.852;25.952;2023-08-07T01:50:38;100351.34;;;23.04;55.21
71559;BME280;59382;43.852;25.952;2023-08-07T01:53:04;100357.44;;;23.01;54.90
71559;BME280;59382;43.852;25.952;2023-08-07T01:55:30;100350.69;;;22.93;54.77
71559;BME280;59382;43.852;25.952;2023-08-07T01:57:56;100353.31;;;22.85;55.08
71559;BME280;59382;43.852;25.952;2023-08-07T02:00:21;100340.25;;;22.77;55.03
71559;BME280;59382;43.852;25.952;2023-08-07T02:02:47;100351.06;;;22.87;54.92
71559;BME280;59382;43.852;25.952;2023-08-07T02:05:13;100354.34;;;22.89;54.80
71559;BME280;59382;43.852;25.952;2023-08-07T02:07:39;100360.84;;;22.79;54.70
71559;BME280;59382;43.852;25.952;2023-08-07T02:10:05;100354.88;;;22.72;55.00
71559;BME280;59382;43.852;25.952;2023-08-07T02:12:31;100341.09;;;22.59;55.01
71559;BME280;59382;43.852;25.952;2023-08-07T02:15:00;100350.38;;;22.63;54.79
71559;BME280;59382;43.852;25.952;2023-08-07T02:17:27;100313.59;;;22.40;54.79
71559;BME280;59382;43.852;25.952;2023-08-07T02:19:53;100362.03;;;22.73;54.53
71559;BME280;59382;43.852;25.952;2023-08-07T02:22:19;100361.66;;;22.80;54.78
71559;BME280;59382;43.852;25.952;2023-08-07T02:24:45;100341.91;;;22.78;54.51
71559;BME280;59382;43.852;25.952;2023-08-07T02:27:10;100360.03;;;22.79;54.60
71559;BME280;59382;43.852;25.952;2023-08-07T02:29:36;100368.19;;;22.84;54.84
71559;BME280;59382;43.852;25.952;2023-08-07T02:32:02;100363.44;;;22.71;55.02
71559;BME280;59382;43.852;25.952;2023-08-07T02:34:29;100368.94;;;22.71;55.16
71559;BME280;59382;43.852;25.952;2023-08-07T02:36:54;100348.31;;;22.55;55.49
71559;BME280;59382;43.852;25.952;2023-08-07T02:39:20;100367.56;;;22.55;55.66
71559;BME280;59382;43.852;25.952;2023-08-07T02:41:45;100360.38;;;22.35;55.88
71559;BME280;59382;43.852;25.952;2023-08-07T02:44:11;100381.19;;;22.41;56.11
71559;BME280;59382;43.852;25.952;2023-08-07T02:46:37;100382.03;;;22.42;56.06
71559;BME280;59382;43.852;25.952;2023-08-07T02:49:02;100388.47;;;22.32;56.19
71559;BME280;59382;43.852;25.952;2023-08-07T02:51:28;100368.50;;;22.27;56.10
71559;BME280;59382;43.852;25.952;2023-08-07T02:53:53;100394.13;;;22.41;55.99
71559;BME280;59382;43.852;25.952;2023-08-07T02:56:19;100399.56;;;22.46;55.95
71559;BME280;59382;43.852;25.952;2023-08-07T02:58:44;100394.06;;;22.46;55.89
71559;BME280;59382;43.852;25.952;2023-08-07T03:01:10;100398.00;;;22.40;55.78
71559;BME280;59382;43.852;25.952;2023-08-07T03:03:36;100403.13;;;22.46;55.74
71559;BME280;59382;43.852;25.952;2023-08-07T03:06:03;100390.28;;;22.42;55.83
71559;BME280;59382;43.852;25.952;2023-08-07T03:08:29;100399.63;;;22.41;55.67
71559;BME280;59382;43.852;25.952;2023-08-07T03:10:57;100410.09;;;22.39;55.80
71559;BME280;59382;43.852;25.952;2023-08-07T03:13:23;100380.22;;;22.14;55.90
71559;BME280;59382;43.852;25.952;2023-08-07T03:15:49;100409.34;;;22.15;56.34
71559;BME280;59382;43.852;25.952;2023-08-07T03:18:19;100404.78;;;22.05;56.27
71559;BME280;59382;43.852;25.952;2023-08-07T03:20:44;100405.06;;;22.04;55.99
71559;BME280;59382;43.852;25.952;2023-08-07T03:23:10;100413.91;;;22.01;56.33
71559;BME280;59382;43.852;25.952;2023-08-07T03:25:36;100377.13;;;21.73;56.26
71559;BME280;59382;43.852;25.952;2023-08-07T03:28:03;100423.50;;;22.03;56.42
71559;BME280;59382;43.852;25.952;2023-08-07T03:30:28;100417.41;;;22.06;56.03
71559;BME280;59382;43.852;25.952;2023-08-07T03:32:54;100418.81;;;22.04;56.22
71559;BME280;59382;43.852;25.952;2023-08-07T03:35:20;100424.88;;;22.01;56.01
71559;BME280;59382;43.852;25.952;2023-08-07T03:37:45;100417.91;;;21.90;55.90
71559;BME280;59382;43.852;25.952;2023-08-07T03:40:11;100420.94;;;21.88;56.01
71559;BME280;59382;43.852;25.952;2023-08-07T03:42:36;100439.50;;;21.96;56.04
71559;BME280;59382;43.852;25.952;2023-08-07T03:45:02;100431.34;;;21.91;55.97
71559;BME280;59382;43.852;25.952;2023-08-07T03:47:28;100437.81;;;22.00;55.69
71559;BME280;59382;43.852;25.952;2023-08-07T03:49:53;100440.78;;;22.04;55.77
71559;BME280;59382;43.852;25.952;2023-08-07T03:52:19;100447.41;;;22.03;55.54
71559;BME280;59382;43.852;25.952;2023-08-07T03:54:45;100458.97;;;22.00;55.45
71559;BME280;59382;43.852;25.952;2023-08-07T03:57:11;100450.28;;;21.93;55.39
71559;BME280;59382;43.852;25.952;2023-08-07T03:59:36;100440.44;;;21.87;55.50
71559;BME280;59382;43.852;25.952;2023-08-07T04:02:02;100455.47;;;21.94;55.38
71559;BME280;59382;43.852;25.952;2023-08-07T04:04:28;100430.59;;;21.86;55.48
71559;BME280;59382;43.852;25.952;2023-08-07T04:06:53;100454.81;;;22.02;55.26
71559;BME280;59382;43.852;25.952;2023-08-07T04:09:19;100444.13;;;22.01;55.21
71559;BME280;59382;43.852;25.952;2023-08-07T04:11:44;100446.81;;;22.06;55.24
71559;BME280;59382;43.852;25.952;2023-08-07T04:14:10;100448.94;;;22.14;54.88
71559;BME280;59382;43.852;25.952;2023-08-07T04:16:36;100434.13;;;22.10;54.89
71559;BME280;59382;43.852;25.952;2023-08-07T04:19:03;100439.50;;;22.20;54.87
71559;BME280;59382;43.852;25.952;2023-08-07T04:21:30;100445.00;;;22.20;54.88
71559;BME280;59382;43.852;25.952;2023-08-07T04:23:55;100424.41;;;22.17;54.85
71559;BME280;59382;43.852;25.952;2023-08-07T04:26:21;100439.38;;;22.30;54.69
71559;BME280;59382;43.852;25.952;2023-08-07T04:28:46;100441.00;;;22.31;54.50
71559;BME280;59382;43.852;25.952;2023-08-07T04:31:12;100444.81;;;22.35;54.55
71559;BME280;59382;43.852;25.952;2023-08-07T04:33:38;100447.84;;;22.33;54.41
71559;BME280;59382;43.852;25.952;2023-08-07T04:36:04;100456.91;;;22.34;54.33
71559;BME280;59382;43.852;25.952;2023-08-07T04:38:29;100454.00;;;22.25;54.25
71559;BME280;59382;43.852;25.952;2023-08-07T04:40:55;100446.63;;;22.21;54.01
71559;BME280;59382;43.852;25.952;2023-08-07T04:43:20;100447.16;;;22.23;53.99
71559;BME280;59382;43.852;25.952;2023-08-07T04:45:46;100447.16;;;22.23;54.00
71559;BME280;59382;43.852;25.952;2023-08-07T04:48:12;100456.00;;;22.20;54.03
71559;BME280;59382;43.852;25.952;2023-08-07T04:50:37;100437.75;;;22.05;54.08
71559;BME280;59382;43.852;25.952;2023-08-07T04:53:06;100470.84;;;22.19;54.26
71559;BME280;59382;43.852;25.952;2023-08-07T04:55:32;100474.94;;;22.21;54.16
71559;BME280;59382;43.852;25.952;2023-08-07T04:57:58;100471.91;;;22.23;54.07
71559;BME280;59382;43.852;25.952;2023-08-07T05:00:24;100476.00;;;22.25;53.81
71559;BME280;59382;43.852;25.952;2023-08-07T05:02:50;100438.00;;;22.09;53.73
71559;BME280;59382;43.852;25.952;2023-08-07T05:05:16;100463.13;;;22.21;53.69
71559;BME280;59382;43.852;25.952;2023-08-07T05:07:43;100459.16;;;22.32;53.56
71559;BME280;59382;43.852;25.952;2023-08-07T05:10:09;100454.81;;;22.26;53.33
71559;BME280;59382;43.852;25.952;2023-08-07T05:12:35;100466.50;;;22.36;53.28
71559;BME280;59382;43.852;25.952;2023-08-07T05:15:01;100448.84;;;22.19;53.22
71559;BME280;59382;43.852;25.952;2023-08-07T05:17:26;100481.50;;;22.44;53.05
71559;BME280;59382;43.852;25.952;2023-08-07T05:19:52;100469.13;;;22.46;52.97
71559;BME280;59382;43.852;25.952;2023-08-07T05:22:18;100487.91;;;22.63;52.76
71559;BME280;59382;43.852;25.952;2023-08-07T05:24:43;100478.00;;;22.62;52.31
71559;BME280;59382;43.852;25.952;2023-08-07T05:27:10;100480.16;;;22.65;52.28
71559;BME280;59382;43.852;25.952;2023-08-07T05:29:36;100496.25;;;22.76;52.06
71559;BME280;59382;43.852;25.952;2023-08-07T05:32:15;100487.09;;;22.81;51.82
71559;BME280;59382;43.852;25.952;2023-08-07T05:34:40;100506.28;;;22.86;51.49
71559;BME280;59382;43.852;25.952;2023-08-07T05:37:06;100488.28;;;22.93;51.51
71559;BME280;59382;43.852;25.952;2023-08-07T05:39:34;100481.81;;;23.03;51.21
71559;BME280;59382;43.852;25.952;2023-08-07T05:41:59;100486.03;;;23.14;50.68
71559;BME280;59382;43.852;25.952;2023-08-07T05:44:25;100494.75;;;23.21;50.35
71559;BME280;59382;43.852;25.952;2023-08-07T05:46:51;100474.72;;;23.15;50.45
71559;BME280;59382;43.852;25.952;2023-08-07T05:49:16;100475.53;;;23.35;50.43
71559;BME280;59382;43.852;25.952;2023-08-07T05:51:42;100491.19;;;23.53;49.99
71559;BME280;59382;43.852;25.952;2023-08-07T05:54:07;100503.19;;;23.75;49.84
71559;BME280;59382;43.852;25.952;2023-08-07T05:56:33;100486.56;;;23.80;49.47
71559;BME280;59382;43.852;25.952;2023-08-07T05:58:59;100497.63;;;23.94;49.13
71559;BME280;59382;43.852;25.952;2023-08-07T06:01:24;100475.34;;;23.90;48.75
71559;BME280;59382;43.852;25.952;2023-08-07T06:03:56;100494.19;;;24.15;48.43
71559;BME280;59382;43.852;25.952;2023-08-07T06:06:22;100487.44;;;24.35;48.21
71559;BME280;59382;43.852;25.952;2023-08-07T06:08:48;100505.41;;;24.59;47.81
71559;BME280;59382;43.852;25.952;2023-08-07T06:11:14;100513.16;;;24.84;46.85
71559;BME280;59382;43.852;25.952;2023-08-07T06:13:40;100516.56;;;25.03;46.70
71559;BME280;59382;43.852;25.952;2023-08-07T06:16:05;100500.53;;;25.28;46.32
71559;BME280;59382;43.852;25.952;2023-08-07T06:18:31;100524.25;;;25.73;46.23
71559;BME280;59382;43.852;25.952;2023-08-07T06:20:57;100528.94;;;26.16;45.13
71559;BME280;59382;43.852;25.952;2023-08-07T06:23:22;100489.78;;;26.40;44.85
71559;BME280;59382;43.852;25.952;2023-08-07T06:25:51;100513.06;;;26.78;44.45
71559;BME280;59382;43.852;25.952;2023-08-07T06:28:16;100519.59;;;27.16;43.31
71559;BME280;59382;43.852;25.952;2023-08-07T06:30:42;100509.84;;;27.27;42.96
71559;BME280;59382;43.852;25.952;2023-08-07T06:33:08;100520.59;;;27.37;42.03
71559;BME280;59382;43.852;25.952;2023-08-07T06:35:40;100487.66;;;27.10;42.05
71559;BME280;59382;43.852;25.952;2023-08-07T06:38:07;100525.50;;;27.32;41.88
71559;BME280;59382;43.852;25.952;2023-08-07T06:40:34;100507.03;;;27.19;41.75
71559;BME280;59382;43.852;25.952;2023-08-07T06:43:00;100517.81;;;27.37;41.93
71559;BME280;59382;43.852;25.952;2023-08-07T06:45:26;100529.03;;;27.66;41.08
71559;BME280;59382;43.852;25.952;2023-08-07T06:47:51;100531.63;;;27.71;40.99
71559;BME280;59382;43.852;25.952;2023-08-07T06:50:17;100528.72;;;27.59;40.35
71559;BME280;59382;43.852;25.952;2023-08-07T06:52:42;100546.00;;;27.56;40.39
71559;BME280;59382;43.852;25.952;2023-08-07T06:55:08;100552.84;;;27.50;40.47
71559;BME280;59382;43.852;25.952;2023-08-07T06:57:34;100548.13;;;27.51;40.57
71559;BME280;59382;43.852;25.952;2023-08-07T07:00:00;100550.06;;;27.67;40.34
71559;BME280;59382;43.852;25.952;2023-08-07T07:02:25;100538.50;;;27.65;40.38
71559;BME280;59382;43.852;25.952;2023-08-07T07:04:54;100553.47;;;27.81;40.31
71559;BME280;59382;43.852;25.952;2023-08-07T07:07:25;100549.66;;;28.11;40.03
71559;BME280;59382;43.852;25.952;2023-08-07T07:09:51;100534.59;;;28.29;39.69
71559;BME280;59382;43.852;25.952;2023-08-07T07:12:16;100542.09;;;28.29;39.12
71559;BME280;59382;43.852;25.952;2023-08-07T07:14:42;100545.69;;;28.29;39.06
71559;BME280;59382;43.852;25.952;2023-08-07T07:17:07;100534.88;;;28.36;38.95
71559;BME280;59382;43.852;25.952;2023-08-07T07:19:33;100550.34;;;28.54;38.82
71559;BME280;59382;43.852;25.952;2023-08-07T07:21:58;100549.94;;;28.64;38.84
71559;BME280;59382;43.852;25.952;2023-08-07T07:24:24;100537.13;;;28.81;38.77
71559;BME280;59382;43.852;25.952;2023-08-07T07:26:52;100537.47;;;29.00;37.99
71559;BME280;59382;43.852;25.952;2023-08-07T07:29:20;100530.75;;;29.01;37.75
71559;BME280;59382;43.852;25.952;2023-08-07T07:31:45;100539.47;;;29.20;37.67
71559;BME280;59382;43.852;25.952;2023-08-07T07:34:12;100540.28;;;29.41;37.17
71559;BME280;59382;43.852;25.952;2023-08-07T07:36:37;100541.16;;;29.53;36.82
71559;BME280;59382;43.852;25.952;2023-08-07T07:39:03;100541.25;;;29.57;36.95
71559;BME280;59382;43.852;25.952;2023-08-07T07:41:29;100532.25;;;29.60;36.86
71559;BME280;59382;43.852;25.952;2023-08-07T07:43:54;100552.03;;;29.67;36.59
71559;BME280;59382;43.852;25.952;2023-08-07T07:46:22;100557.94;;;29.65;36.52
71559;BME280;59382;43.852;25.952;2023-08-07T07:48:49;100544.72;;;29.54;36.51
71559;BME280;59382;43.852;25.952;2023-08-07T07:51:16;100558.38;;;29.47;36.33
71559;BME280;59382;43.852;25.952;2023-08-07T07:53:42;100552.50;;;29.28;36.85
71559;BME280;59382;43.852;25.952;2023-08-07T07:56:07;100550.59;;;29.20;36.30
71559;BME280;59382;43.852;25.952;2023-08-07T07:58:33;100548.44;;;29.25;36.36
71559;BME280;59382;43.852;25.952;2023-08-07T08:00:58;100549.91;;;29.23;36.66
71559;BME280;59382;43.852;25.952;2023-08-07T08:03:30;100569.28;;;29.11;36.73
71559;BME280;59382;43.852;25.952;2023-08-07T08:05:56;100567.06;;;28.96;36.82
71559;BME280;59382;43.852;25.952;2023-08-07T08:08:21;100571.59;;;28.80;36.91
71559;BME280;59382;43.852;25.952;2023-08-07T08:10:47;100564.47;;;28.70;37.00
71559;BME280;59382;43.852;25.952;2023-08-07T08:13:15;100567.19;;;28.79;36.72
71559;BME280;59382;43.852;25.952;2023-08-07T08:15:44;100571.81;;;28.95;36.85
71559;BME280;59382;43.852;25.952;2023-08-07T08:18:13;100570.94;;;29.12;36.50
71559;BME280;59382;43.852;25.952;2023-08-07T08:20:38;100553.03;;;29.21;36.20
71559;BME280;59382;43.852;25.952;2023-08-07T08:23:04;100563.75;;;29.52;35.74
71559;BME280;59382;43.852;25.952;2023-08-07T08:25:31;100559.72;;;29.61;35.89
71559;BME280;59382;43.852;25.952;2023-08-07T08:27:57;100566.19;;;29.74;35.45
71559;BME280;59382;43.852;25.952;2023-08-07T08:30:23;100529.16;;;29.41;35.32
71559;BME280;59382;43.852;25.952;2023-08-07T08:32:49;100554.53;;;29.39;35.57
71559;BME280;59382;43.852;25.952;2023-08-07T08:35:14;100555.88;;;29.13;35.65
71559;BME280;59382;43.852;25.952;2023-08-07T08:37:40;100562.94;;;29.10;35.43
71559;BME280;59382;43.852;25.952;2023-08-07T08:40:07;100538.34;;;29.21;35.23
71559;BME280;59382;43.852;25.952;2023-08-07T08:42:34;100561.16;;;29.47;34.63
71559;BME280;59382;43.852;25.952;2023-08-07T08:45:00;100547.88;;;29.32;34.72
71559;BME280;59382;43.852;25.952;2023-08-07T08:47:29;100550.72;;;29.44;34.43
71559;BME280;59382;43.852;25.952;2023-08-07T08:50:07;100554.38;;;29.56;33.73
71559;BME280;59382;43.852;25.952;2023-08-07T08:52:33;100546.22;;;29.72;34.23
71559;BME280;59382;43.852;25.952;2023-08-07T08:55:01;100538.59;;;29.81;33.58
71559;BME280;59382;43.852;25.952;2023-08-07T08:57:28;100543.13;;;29.85;33.96
71559;BME280;59382;43.852;25.952;2023-08-07T08:59:55;100561.75;;;30.05;33.54
71559;BME280;59382;43.852;25.952;2023-08-07T09:02:22;100546.31;;;29.96;33.55
71559;BME280;59382;43.852;25.952;2023-08-07T09:04:47;100543.47;;;29.84;33.38
71559;BME280;59382;43.852;25.952;2023-08-07T09:07:14;100537.81;;;29.80;33.26
71559;BME280;59382;43.852;25.952;2023-08-07T09:09:41;100548.56;;;29.70;33.44
71559;BME280;59382;43.852;25.952;2023-08-07T09:12:18;100545.28;;;29.68;33.67
71559;BME280;59382;43.852;25.952;2023-08-07T09:14:52;100548.66;;;29.73;33.53
71559;BME280;59382;43.852;25.952;2023-08-07T09:17:26;100543.94;;;29.74;33.21
71559;BME280;59382;43.852;25.952;2023-08-07T09:19:53;100546.75;;;29.86;33.33
71559;BME280;59382;43.852;25.952;2023-08-07T09:22:21;100521.00;;;29.77;33.31
71559;BME280;59382;43.852;25.952;2023-08-07T09:24:47;100546.53;;;30.03;33.47
71559;BME280;59382;43.852;25.952;2023-08-07T09:27:13;100551.00;;;30.16;33.18
71559;BME280;59382;43.852;25.952;2023-08-07T09:29:46;100560.78;;;30.22;33.20
71559;BME280;59382;43.852;25.952;2023-08-07T09:32:12;100557.75;;;30.27;32.92
71559;BME280;59382;43.852;25.952;2023-08-07T09:34:42;100540.25;;;29.94;32.95
71559;BME280;59382;43.852;25.952;2023-08-07T09:37:11;100572.75;;;30.02;32.45
71559;BME280;59382;43.852;25.952;2023-08-07T09:39:37;100580.81;;;29.83;32.99
71559;BME280;59382;43.852;25.952;2023-08-07T09:42:03;100574.03;;;29.72;33.03
71559;BME280;59382;43.852;25.952;2023-08-07T09:44:38;100560.56;;;29.62;32.82
71559;BME280;59382;43.852;25.952;2023-08-07T09:47:17;100568.06;;;29.61;32.96
71559;BME280;59382;43.852;25.952;2023-08-07T09:49:44;100549.16;;;29.55;33.55
71559;BME280;59382;43.852;25.952;2023-08-07T09:52:12;100573.75;;;29.85;33.35
71559;BME280;59382;43.852;25.952;2023-08-07T09:54:41;100559.03;;;29.97;33.38
71559;BME280;59382;43.852;25.952;2023-08-07T09:57:07;100581.59;;;30.04;32.67
71559;BME280;59382;43.852;25.952;2023-08-07T09:59:33;100587.84;;;30.01;33.03
71559;BME280;59382;43.852;25.952;2023-08-07T10:02:03;100573.41;;;29.87;32.88
71559;BME280;59382;43.852;25.952;2023-08-07T10:04:32;100580.38;;;29.93;33.09
71559;BME280;59382;43.852;25.952;2023-08-07T10:06:57;100576.66;;;29.89;32.74
71559;BME280;59382;43.852;25.952;2023-08-07T10:09:24;100578.28;;;29.90;32.44
71559;BME280;59382;43.852;25.952;2023-08-07T10:11:50;100575.69;;;29.73;32.84
71559;BME280;59382;43.852;25.952;2023-08-07T10:14:16;100586.84;;;29.85;32.61
71559;BME280;59382;43.852;25.952;2023-08-07T10:16:42;100577.44;;;29.77;32.96
71559;BME280;59382;43.852;25.952;2023-08-07T10:19:08;100583.38;;;29.88;32.73
71559;BME280;59382;43.852;25.952;2023-08-07T10:21:47;100574.59;;;29.98;32.88
71559;BME280;59382;43.852;25.952;2023-08-07T10:24:13;100562.97;;;29.84;32.77
71559;BME280;59382;43.852;25.952;2023-08-07T10:26:45;100581.75;;;29.87;32.70
71559;BME280;59382;43.852;25.952;2023-08-07T10:29:14;100572.22;;;29.88;32.71
71559;BME280;59382;43.852;25.952;2023-08-07T10:31:44;100557.63;;;29.91;32.75
71559;BME280;59382;43.852;25.952;2023-08-07T10:34:10;100576.69;;;30.01;32.77
71559;BME280;59382;43.852;25.952;2023-08-07T10:36:39;100564.44;;;30.14;32.49
71559;BME280;59382;43.852;25.952;2023-08-07T10:39:10;100559.63;;;30.23;32.20
71559;BME280;59382;43.852;25.952;2023-08-07T10:41:41;100545.44;;;30.16;32.41
71559;BME280;59382;43.852;25.952;2023-08-07T10:44:18;100557.69;;;30.15;31.79
71559;BME280;59382;43.852;25.952;2023-08-07T10:46:52;100556.06;;;30.02;31.87
71559;BME280;59382;43.852;25.952;2023-08-07T10:49:36;100545.25;;;29.88;32.09
71559;BME280;59382;43.852;25.952;2023-08-07T10:52:14;100539.34;;;29.90;32.00
71559;BME280;59382;43.852;25.952;2023-08-07T10:54:40;100537.97;;;30.08;31.74
71559;BME280;59382;43.852;25.952;2023-08-07T10:57:20;100547.03;;;30.17;32.02
71559;BME280;59382;43.852;25.952;2023-08-07T11:02:25;100548.56;;;30.14;32.14
71559;BME280;59382;43.852;25.952;2023-08-07T11:04:52;100537.97;;;30.08;32.19
71559;BME280;59382;43.852;25.952;2023-08-07T11:07:29;100540.91;;;30.11;31.20
71559;BME280;59382;43.852;25.952;2023-08-07T11:09:56;100536.38;;;30.07;31.63
71559;BME280;59382;43.852;25.952;2023-08-07T11:12:26;100512.22;;;29.99;31.49
71559;BME280;59382;43.852;25.952;2023-08-07T11:14:52;100527.38;;;30.22;31.28
71559;BME280;59382;43.852;25.952;2023-08-07T11:17:28;100534.78;;;30.30;31.12
71559;BME280;59382;43.852;25.952;2023-08-07T11:19:55;100538.97;;;30.36;31.14
71559;BME280;59382;43.852;25.952;2023-08-07T11:22:21;100529.94;;;30.39;30.62
71559;BME280;59382;43.852;25.952;2023-08-07T11:24:47;100526.22;;;30.35;30.38
71559;BME280;59382;43.852;25.952;2023-08-07T11:27:13;100518.78;;;30.27;30.65
71559;BME280;59382;43.852;25.952;2023-08-07T11:29:41;100513.16;;;30.15;30.68
71559;BME280;59382;43.852;25.952;2023-08-07T11:32:08;100509.47;;;30.11;30.32
71559;BME280;59382;43.852;25.952;2023-08-07T11:34:33;100523.63;;;30.18;30.41
71559;BME280;59382;43.852;25.952;2023-08-07T11:36:59;100511.91;;;30.12;29.92
71559;BME280;59382;43.852;25.952;2023-08-07T11:39:28;100524.53;;;30.10;29.66
71559;BME280;59382;43.852;25.952;2023-08-07T11:41:53;100513.84;;;30.00;29.48
71559;BME280;59382;43.852;25.952;2023-08-07T11:44:20;100518.97;;;30.10;29.90
71559;BME280;59382;43.852;25.952;2023-08-07T11:46:45;100524.78;;;30.17;29.93
71559;BME280;59382;43.852;25.952;2023-08-07T11:49:12;100516.94;;;30.19;29.77
71559;BME280;59382;43.852;25.952;2023-08-07T11:51:48;100515.44;;;30.21;29.25
71559;BME280;59382;43.852;25.952;2023-08-07T11:54:14;100510.34;;;30.23;29.60
71559;BME280;59382;43.852;25.952;2023-08-07T11:56:41;100497.91;;;30.21;29.42
71559;BME280;59382;43.852;25.952;2023-08-07T11:59:10;100494.78;;;30.22;29.65
71559;BME280;59382;43.852;25.952;2023-08-07T12:01:38;100505.81;;;30.31;29.37
71559;BME280;59382;43.852;25.952;2023-08-07T12:06:31;100509.97;;;30.25;28.62
71559;BME280;59382;43.852;25.952;2023-08-07T12:08:57;100515.25;;;30.18;28.69
71559;BME280;59382;43.852;25.952;2023-08-07T12:11:23;100510.38;;;30.15;29.20
71559;BME280;59382;43.852;25.952;2023-08-07T12:13:49;100516.94;;;30.19;29.36
71559;BME280;59382;43.852;25.952;2023-08-07T12:16:16;100486.63;;;30.17;28.75
71559;BME280;59382;43.852;25.952;2023-08-07T12:21:15;100499.59;;;30.13;28.60
71559;BME280;59382;43.852;25.952;2023-08-07T12:23:41;100490.34;;;30.09;28.63
71559;BME280;59382;43.852;25.952;2023-08-07T12:26:07;100499.25;;;30.15;28.20
71559;BME280;59382;43.852;25.952;2023-08-07T12:28:34;100499.41;;;30.18;28.62
71559;BME280;59382;43.852;25.952;2023-08-07T12:30:59;100478.16;;;30.14;28.32
71559;BME280;59382;43.852;25.952;2023-08-07T12:33:25;100502.78;;;30.24;28.12
71559;BME280;59382;43.852;25.952;2023-08-07T12:35:54;100494.44;;;30.24;28.04
71559;BME280;59382;43.852;25.952;2023-08-07T12:38:19;100481.69;;;30.23;28.18
71559;BME280;59382;43.852;25.952;2023-08-07T12:40:45;100477.38;;;30.25;28.16
71559;BME280;59382;43.852;25.952;2023-08-07T12:43:11;100505.78;;;30.43;28.03
71559;BME280;59382;43.852;25.952;2023-08-07T12:45:37;100491.66;;;30.36;27.95
71559;BME280;59382;43.852;25.952;2023-08-07T12:48:02;100503.25;;;30.38;27.90